createdAt,value
2023-02-09T00:01:33.176Z,18.95
2023-02-09T00:04:03.565Z,19.38
2023-02-09T00:06:33.306Z,18.38
2023-02-09T00:09:04.419Z,26.27
2023-02-09T00:11:53.923Z,22.20
2023-02-09T00:14:23.583Z,24.33
2023-02-09T00:16:54.172Z,22.30
2023-02-09T00:19:23.714Z,25.38
2023-02-09T00:21:53.139Z,21.23
2023-02-09T00:24:23.907Z,23.20
2023-02-09T00:26:53.445Z,24.35
2023-02-09T00:29:24.034Z,27.75
2023-02-09T00:31:53.667Z,21.40
2023-02-09T00:34:23.142Z,20.80
2023-02-09T00:42:07.548Z,18.58
2023-02-09T00:44:40.861Z,22.42
2023-02-09T00:49:41.066Z,20.67
2023-02-09T00:52:10.671Z,21.55
2023-02-09T00:54:40.329Z,22.38
2023-02-09T00:57:12.086Z,21.48
2023-02-09T00:59:42.486Z,27.35
2023-02-09T01:02:12.078Z,19.40
2023-02-09T01:04:41.816Z,22.45
2023-02-09T01:07:11.454Z,23.00
2023-02-09T01:09:41.100Z,23.50
2023-02-09T01:12:18.743Z,23.88
2023-02-09T01:14:48.775Z,18.85
2023-02-09T01:17:18.419Z,21.00
2023-02-09T01:19:52.480Z,22.95
2023-02-09T01:22:23.280Z,19.60
2023-02-09T01:24:53.010Z,27.60
2023-02-09T01:27:24.143Z,23.67
2023-02-09T01:29:55.224Z,16.92
2023-02-09T01:32:25.672Z,21.05
2023-02-09T01:55:24.318Z,21.48
2023-02-09T01:57:59.840Z,17.83
2023-02-09T02:00:29.543Z,24.77
2023-02-09T02:03:06.209Z,22.60
2023-02-09T02:05:40.923Z,23.63
2023-02-09T02:08:19.469Z,19.48
2023-02-09T02:10:50.504Z,20.63
2023-02-09T02:13:21.074Z,22.27
2023-02-09T02:16:05.613Z,22.80
2023-02-09T02:19:01.331Z,25.08
2023-02-09T02:22:32.256Z,16.58
2023-02-09T02:26:14.933Z,17.00
2023-02-09T02:29:39.877Z,22.75
2023-02-09T02:32:38.402Z,25.17
2023-02-09T02:35:20.127Z,22.20
2023-02-09T02:38:04.751Z,23.52
2023-02-09T02:40:51.049Z,28.23
2023-02-09T02:43:37.832Z,24.48
2023-02-09T02:46:16.938Z,25.13
2023-02-09T02:48:56.405Z,23.52
2023-02-09T02:51:33.059Z,20.85
2023-02-09T02:54:09.483Z,21.40
2023-02-09T02:56:44.734Z,23.50
2023-02-09T02:59:20.833Z,22.60
2023-02-09T03:01:58.603Z,20.00
2023-02-09T03:04:31.936Z,22.15
2023-02-09T03:09:31.000Z,21.13
2023-02-09T03:12:16.626Z,20.88
2023-02-09T03:15:08.686Z,20.58
2023-02-09T03:17:49.266Z,23.67
2023-02-09T03:20:33.409Z,26.92
2023-02-09T03:23:05.744Z,24.08
2023-02-09T03:25:43.088Z,19.40
2023-02-09T03:28:21.296Z,21.42
2023-02-09T03:30:52.948Z,20.55
2023-02-09T03:33:26.814Z,24.10
2023-02-09T03:36:00.987Z,18.15
2023-02-09T03:38:30.695Z,19.30
2023-02-09T03:41:00.207Z,23.02
2023-02-09T03:43:43.638Z,25.65
2023-02-09T03:46:13.689Z,16.50
2023-02-09T03:48:43.275Z,23.40
2023-02-09T03:51:14.225Z,25.85
2023-02-09T03:53:43.840Z,22.92
2023-02-09T03:56:13.495Z,24.00
2023-02-09T03:58:43.089Z,25.95
2023-02-09T04:01:12.973Z,24.48
2023-02-09T04:03:42.662Z,28.17
2023-02-09T04:06:14.409Z,24.17
2023-02-09T04:08:44.112Z,21.27
2023-02-09T04:11:13.552Z,20.42
2023-02-09T04:13:43.005Z,22.10
2023-02-09T04:16:12.595Z,23.77
2023-02-09T04:18:42.182Z,26.92
2023-02-09T04:21:13.537Z,25.90
2023-02-09T04:23:43.201Z,27.40
2023-02-09T04:26:12.920Z,27.20
2023-02-09T04:28:42.480Z,25.85
2023-02-09T04:31:12.428Z,25.85
2023-02-09T04:33:42.200Z,26.58
2023-02-09T04:36:13.655Z,22.48
2023-02-09T04:38:43.180Z,24.98
2023-02-09T04:41:12.621Z,31.67
2023-02-09T04:43:42.035Z,23.80
2023-02-09T04:46:14.425Z,39.22
2023-02-09T04:48:44.320Z,30.30
2023-02-09T04:51:15.627Z,27.70
2023-02-09T04:53:45.141Z,27.15
2023-02-09T04:56:16.945Z,26.42
2023-02-09T04:59:04.270Z,29.10
2023-02-09T05:01:34.324Z,23.85
2023-02-09T05:04:03.823Z,29.77
2023-02-09T05:06:34.648Z,27.02
2023-02-09T05:09:04.337Z,30.38
2023-02-09T05:11:33.763Z,27.15
2023-02-09T05:14:03.205Z,31.20
2023-02-09T05:16:32.733Z,24.30
2023-02-09T05:19:02.367Z,38.47
2023-02-09T05:21:31.821Z,29.38
2023-02-09T05:24:02.812Z,28.35
2023-02-09T05:26:32.779Z,30.38
2023-02-09T05:29:02.308Z,28.48
2023-02-09T05:31:32.057Z,33.65
2023-02-09T05:34:02.185Z,29.75
2023-02-09T05:36:31.774Z,26.00
2023-02-09T05:39:02.637Z,23.00
2023-02-09T05:41:49.499Z,26.23
2023-02-09T05:44:19.184Z,28.13
2023-02-09T05:46:48.703Z,27.55
2023-02-09T05:49:18.701Z,28.88
2023-02-09T05:51:48.233Z,29.13
2023-02-09T05:54:19.138Z,31.00
2023-02-09T05:56:49.149Z,26.00
2023-02-09T05:59:19.245Z,22.63
2023-02-09T06:01:48.660Z,23.67
2023-02-09T06:04:18.491Z,26.23
2023-02-09T06:06:48.134Z,29.58
2023-02-09T06:09:19.906Z,25.55
2023-02-09T06:11:49.399Z,26.23
2023-02-09T06:14:19.394Z,24.90
2023-02-09T06:16:49.075Z,30.48
2023-02-09T06:19:22.143Z,26.08
2023-02-09T06:21:51.601Z,32.40
2023-02-09T06:24:22.522Z,25.05
2023-02-09T06:26:52.033Z,28.48
2023-02-09T06:29:21.465Z,31.73
2023-02-09T06:31:51.013Z,26.45
2023-02-09T06:34:20.544Z,28.75
2023-02-09T06:36:49.994Z,33.58
2023-02-09T06:39:20.871Z,37.15
2023-02-09T06:41:51.879Z,34.05
2023-02-09T06:44:21.754Z,30.58
2023-02-09T06:46:51.288Z,27.75
2023-02-09T06:49:22.243Z,35.35
2023-02-09T06:51:51.977Z,32.47
2023-02-09T06:54:23.483Z,29.85
2023-02-09T06:56:53.027Z,28.92
2023-02-09T06:59:22.781Z,36.38
2023-02-09T07:01:54.821Z,33.88
2023-02-09T07:04:24.548Z,27.48
2023-02-09T07:06:54.004Z,27.90
2023-02-09T07:09:24.878Z,32.05
2023-02-09T07:11:54.313Z,38.10
2023-02-09T07:14:23.902Z,35.40
2023-02-09T07:16:53.452Z,42.85
2023-02-09T07:19:22.931Z,34.85
2023-02-09T07:21:52.423Z,46.78
2023-02-09T07:24:21.896Z,44.05
2023-02-09T07:26:52.717Z,41.38
2023-02-09T07:29:22.225Z,41.58
2023-02-09T07:31:51.747Z,43.80
2023-02-09T07:34:21.357Z,39.88
2023-02-09T07:36:50.940Z,45.97
2023-02-09T07:39:20.591Z,49.38
2023-02-09T07:41:50.286Z,46.15
2023-02-09T07:44:21.278Z,40.45
2023-02-09T07:46:51.994Z,40.13
2023-02-09T07:49:21.578Z,46.58
2023-02-09T07:51:51.142Z,41.75
2023-02-09T07:54:21.345Z,41.10
2023-02-09T07:56:50.997Z,39.38
2023-02-09T07:59:21.836Z,42.13
2023-02-09T08:01:52.048Z,44.92
2023-02-09T08:04:22.822Z,42.15
2023-02-09T08:06:53.247Z,43.80
2023-02-09T08:09:22.766Z,42.63
2023-02-09T08:11:57.449Z,43.08
2023-02-09T08:14:36.061Z,43.75
2023-02-09T08:17:24.171Z,36.60
2023-02-09T08:20:00.337Z,39.20
2023-02-09T08:22:34.702Z,42.30
2023-02-09T08:25:06.894Z,38.75
2023-02-09T08:27:37.993Z,41.08
2023-02-09T08:30:11.368Z,44.53
2023-02-09T08:35:10.931Z,39.67
2023-02-09T08:37:40.562Z,38.45
2023-02-09T08:40:11.733Z,36.63
2023-02-09T08:42:41.289Z,35.30
2023-02-09T08:45:12.580Z,32.95
2023-02-09T08:47:42.087Z,34.95
2023-02-09T08:50:11.935Z,32.97
2023-02-09T08:52:41.585Z,34.00
2023-02-09T08:55:11.234Z,31.13
2023-02-09T08:57:44.371Z,33.50
2023-02-09T09:00:18.059Z,30.33
2023-02-09T09:05:17.364Z,31.73
2023-02-09T09:07:46.798Z,32.30
2023-02-09T09:10:16.403Z,31.55
2023-02-09T09:12:45.954Z,33.42
2023-02-09T09:15:16.658Z,28.83
2023-02-09T09:17:46.270Z,32.33
2023-02-09T09:20:16.233Z,30.50
2023-02-09T09:22:45.768Z,29.60
2023-02-09T09:25:15.163Z,28.05
2023-02-09T09:27:44.805Z,26.52
2023-02-09T09:30:16.271Z,28.35
2023-02-09T09:32:45.901Z,27.20
2023-02-09T09:35:15.544Z,28.98
2023-02-09T09:37:44.980Z,26.60
2023-02-09T09:40:21.924Z,25.73
2023-02-09T09:42:56.619Z,23.60
2023-02-09T09:45:32.524Z,29.08
2023-02-09T09:48:02.108Z,30.88
2023-02-09T09:50:37.722Z,32.47
2023-02-09T09:53:18.584Z,28.92
2023-02-09T09:55:48.585Z,27.02
2023-02-09T09:58:23.591Z,28.13
2023-02-09T10:00:55.076Z,29.63
2023-02-09T10:03:26.482Z,29.05
2023-02-09T10:06:01.900Z,26.13
2023-02-09T10:08:38.066Z,24.33
2023-02-09T10:11:12.377Z,24.05
2023-02-09T10:13:49.840Z,28.65
2023-02-09T10:16:25.451Z,26.70
2023-02-09T10:18:58.482Z,27.02
2023-02-09T10:21:32.236Z,27.95
2023-02-09T10:24:14.313Z,23.58
2023-02-09T10:26:44.209Z,28.70
2023-02-09T10:29:26.633Z,22.95
2023-02-09T10:32:07.101Z,27.02
2023-02-09T10:34:48.016Z,22.75
2023-02-09T10:37:28.083Z,20.95
2023-02-09T10:40:15.997Z,23.80
2023-02-09T10:42:57.295Z,24.48
2023-02-09T10:45:30.885Z,22.30
2023-02-09T10:48:18.902Z,19.45
2023-02-09T10:50:55.411Z,24.48
2023-02-09T10:53:30.471Z,14.52
2023-02-09T10:56:07.913Z,16.70
2023-02-09T10:58:38.741Z,16.67
2023-02-09T11:01:20.329Z,14.13
2023-02-09T11:04:03.157Z,15.50
2023-02-09T11:06:44.472Z,15.40
2023-02-09T11:09:18.556Z,18.05
2023-02-09T11:11:48.144Z,17.92
2023-02-09T11:14:21.074Z,19.88
2023-02-09T11:17:18.208Z,12.68
2023-02-09T11:20:23.379Z,14.10
2023-02-09T11:23:12.545Z,11.73
2023-02-09T11:25:53.552Z,14.48
2023-02-09T11:28:43.395Z,19.15
2023-02-09T11:32:01.340Z,17.48
2023-02-09T11:35:01.809Z,15.88
2023-02-09T11:37:47.564Z,14.50
2023-02-09T11:40:37.561Z,15.07
2023-02-09T11:43:21.786Z,14.10
2023-02-09T11:45:53.821Z,15.70
2023-02-09T11:48:27.454Z,15.70
2023-02-09T11:51:06.868Z,13.95
2023-02-09T11:53:49.968Z,14.48
2023-02-09T11:56:24.735Z,11.57
2023-02-09T11:59:04.042Z,15.90
2023-02-09T12:01:43.614Z,17.00
2023-02-09T12:04:22.535Z,14.60
2023-02-09T12:06:58.330Z,14.55
2023-02-09T12:09:46.964Z,13.05
2023-02-09T12:12:27.167Z,14.13
2023-02-09T12:15:15.255Z,13.48
2023-02-09T12:17:51.654Z,18.25
2023-02-09T12:20:31.256Z,22.17
2023-02-09T12:23:08.089Z,15.95
2023-02-09T12:25:57.516Z,14.63
2023-02-09T12:28:45.975Z,16.38
2023-02-09T12:31:24.663Z,14.50
2023-02-09T12:34:29.467Z,16.88
2023-02-09T12:37:28.284Z,15.65
2023-02-09T12:40:38.578Z,16.63
2023-02-09T12:43:34.883Z,18.15
2023-02-09T12:46:51.790Z,15.00
2023-02-09T12:49:25.420Z,14.48
2023-02-09T12:52:17.872Z,20.23
2023-02-09T12:54:51.835Z,17.05
2023-02-09T12:57:55.589Z,16.80
2023-02-09T13:00:56.480Z,15.35
2023-02-09T13:03:27.993Z,16.38
2023-02-09T13:06:01.416Z,18.48
2023-02-09T13:11:30.332Z,16.15
2023-02-09T13:14:07.453Z,14.02
2023-02-09T13:17:20.601Z,13.02
2023-02-09T13:20:20.121Z,19.85
2023-02-09T13:23:10.705Z,18.17
2023-02-09T13:25:41.583Z,17.02
2023-02-09T13:28:18.023Z,16.17
2023-02-09T13:30:49.682Z,16.23
2023-02-09T13:33:36.457Z,14.50
2023-02-09T13:36:28.004Z,17.33
2023-02-09T13:38:58.123Z,17.85
2023-02-09T13:41:37.148Z,15.43
2023-02-09T13:44:23.331Z,14.98
2023-02-09T13:46:58.241Z,15.60
2023-02-09T13:49:30.516Z,18.00
2023-02-09T13:52:15.247Z,20.52
2023-02-09T13:54:45.259Z,18.77
2023-02-09T13:57:32.279Z,16.77
2023-02-09T14:00:14.654Z,15.93
2023-02-09T14:02:56.547Z,18.33
2023-02-09T14:05:40.653Z,16.20
2023-02-09T14:08:15.620Z,17.30
2023-02-09T14:10:51.427Z,16.10
2023-02-09T14:13:26.192Z,30.73
2023-02-09T14:16:08.635Z,21.85
2023-02-09T14:18:51.491Z,18.95
2023-02-09T14:21:32.552Z,17.98
2023-02-09T14:24:27.537Z,20.65
2023-02-09T14:27:04.724Z,16.08
2023-02-09T14:29:38.125Z,19.17
2023-02-09T14:32:32.907Z,18.08
2023-02-09T14:35:21.690Z,19.80
2023-02-09T14:37:53.883Z,17.13
2023-02-09T14:40:31.972Z,19.00
2023-02-09T14:43:17.144Z,18.15
2023-02-09T14:45:50.139Z,19.17
2023-02-09T14:48:22.821Z,18.42
2023-02-09T14:50:57.866Z,17.17
2023-02-09T14:53:31.388Z,20.33
2023-02-09T14:56:00.881Z,19.85
2023-02-09T14:58:33.311Z,21.13
2023-02-09T15:01:04.290Z,18.93
2023-02-09T23:56:05.624Z,41.72
2023-02-09T23:58:38.640Z,33.42
